Weather at Elzenborn airport - EBLB


metar: EBLB 241125Z 07004KT 9999 FEW030 SCT200 17/08 Q1019 BLU

39 minuten geleden, om 11:25 UTC, de wind blies met windsnelheden van 2.1 meter per seconde(4.6 mijl per uur) vanuit Oost-noordoost nabij Elzenborn airport. De temperatuur was 17 °C (63 °F), en de barometerdruk was 1,019 hPa (30.09 inHg). De relatieve vochtigheid was 55.4%. er was weinig bewolking op een hoogte van 914 meter (3000 voet) en verspreide bewolking op een hoogte van 6096 meter (20000 voet). De zichtbaarheid was >10 kilometer (>6.2 mijl).

temperature image   windir image sky image 

Last 24 hour graph Elzenborn airport - EBLB